Circleville, West Virginia
Current Conditions -  °F | °C
As of 6:15 PM on Wednesday 22 Oct 2014 (Local Time) from KEKN Reporting Station
Light Rain Light Rain  
Wind Chill: 42°   Ceiling: 700
Heat Index: 45°   Visibility: 4mi
Dew Point: 44°   Wind: 6mph
Humidity: 97%   Direction: 300°WNW
Pressure: 30.15"   Gusts: NA
Location:  38.67°N, 79.49°W
Report Text: KEKN 222215Z AUTO 30005KT 4SM -RA BR OVC007 07/07 A3015 RMK AO2 CIG 005V010 P0000 T00720067 TSNO
Loading
Personal Weather Stations






























Interactive Weather Map
Tropical Storm Tracking
New forecast layout! Learn more

10-Day Weather Forecast

Advertisements
Track Severe Weather on mobile